Latest Coastal Weather Observations for Cape Naturaliste

IDW60701

Issued at 9:02 pm WST Saturday 13 February 2016 (issued every 10 minutes, with the page automatically refreshed every 10 minutes)

About coastal observations | Map of coastal stations | Coastal observations for WA | Marine services | Other Formats
Station Details ID: 009519 Name: CAPE NATURALISTE Lat: -33.54 Lon: 115.02 Height: 109.0 m
Data from the previous 72 hours. | See also: Recent months at Cape Naturaliste
Date/Time
WST
Temp

°C
Wind Pressure Rain
since 9am
mm
Weather Cloud Vis
km
Sea
Height
m
Swell
Dir
 
Speed
knots
Gust
knots
hPa Trend Height
m
Period
s
Dir
13/09:00pm 16.0 SSE 21 30 1022.5 - 0.0 - - - - - - -
13/08:30pm 16.2 SSE 20 30 1022.3 - 0.0 - - - - - - -
13/08:00pm 16.5 S 18 28 1022.3 - 0.0 - - - - - - -
13/07:50pm 16.7 S 17 28 1022.2 - 0.0 - - - - - - -
13/07:30pm 17.1 S 17 25 1021.9 - 0.0 - - - - - - -
13/07:00pm 18.2 S 18 26 1021.6 - 0.0 - - - - - - -
13/06:30pm 19.6 S 17 23 1021.3 - 0.0 - - - - - - -
13/06:00pm 21.2 S 17 24 1021.0 - 0.0 - - - - - - -
13/05:30pm 22.7 S 14 21 1020.7 - 0.0 - - - - - - -
13/05:00pm 23.5 SSE 16 22 1020.5 - 0.0 - - - - - - -
13/04:30pm 24.6 SSE 14 21 1020.8 - 0.0 - - - - - - -
13/04:00pm 25.2 SSE 12 19 1021.0 - 0.0 - - - - - - -
13/03:30pm 25.4 SSE 15 23 1021.1 - 0.0 - - - - - - -
13/03:00pm 25.9 SSE 11 19 1021.3 - 0.0 - - - - - - -
13/02:30pm 26.4 SSE 11 17 1021.3 - 0.0 - - - - - - -
13/02:00pm 25.4 SSE 14 23 1021.6 - 0.0 - - - - - - -
13/01:30pm 25.7 SSE 13 20 1021.9 - 0.0 - - - - - - -
13/01:00pm 25.8 SSE 10 17 1022.1 - 0.0 - - - - - - -
13/12:30pm 24.7 SSE 14 23 1022.5 - 0.0 - - - - - - -
13/12:00pm 23.6 S 15 21 1023.0 - 0.0 - - - - - - -
13/11:30am 23.4 SSE 14 20 1023.3 - 0.0 - - - - - - -
13/11:00am 23.7 SSE 12 21 1023.5 - 0.0 - - - - - - -
13/10:53am 22.7 SSE 15 25 1023.5 - 0.0 - - - - - - -
13/10:30am 22.6 SSE 13 20 1023.8 - 0.0 - - - - - - -
13/10:00am 20.6 SSE 14 20 1023.9 - 0.0 - - - - - - -
13/09:30am 20.0 SE 15 23 1024.1 - 0.0 - - - - - - -
13/09:00am 19.1 SSE 14 21 1024.1 - 0.0 - - - - - - -
13/08:30am 18.7 SSE 11 17 1024.1 - 0.0 - - - - - - -
13/08:00am 18.4 SE 12 16 1024.0 - 0.0 - - - - - - -
13/07:30am 17.0 SSE 7 10 1023.9 - 0.0 - - - - - - -
13/07:00am 16.1 SSE 8 11 1023.7 - 0.0 - - - - - - -
13/06:30am 15.3 SSE 11 14 1023.3 - 0.0 - - - - - - -
13/06:00am 14.7 SSE 10 13 1022.9 - 0.0 - - - - - - -
13/05:30am 15.1 S 12 17 1022.5 - 0.0 - - - - - - -
13/05:00am 14.4 S 13 16 1022.2 - 0.0 - - - - - - -
13/04:30am 14.8 S 12 17 1021.9 - 0.0 - - - - - - -
13/04:00am 14.8 SSE 10 13 1021.8 - 0.0 - - - - - - -
13/03:30am 14.2 SSE 11 13 1021.5 - 0.0 - - - - - - -
13/03:00am 14.7 SSE 12 15 1021.5 - 0.0 - - - - - - -
13/02:30am 14.9 S 13 17 1021.3 - 0.0 - - - - - - -
13/02:00am 15.3 S 14 19 1021.0 - 0.0 - - - - - - -
13/01:30am 15.5 S 15 20 1020.9 - 0.0 - - - - - - -
13/01:00am 15.6 S 14 18 1020.8 - 0.0 - - - - - - -
13/12:30am 15.8 S 15 20 1020.7 - 0.0 - - - - - - -
13/12:00am 16.0 SSE 14 19 1020.8 - 0.0 - - - - - - -
 
Date/Time
WST
Temp

°C
Wind Pressure Rain
since 9am
mm
Weather Cloud Vis
km
Sea
Height
m
Swell
Dir
 
Speed
knots
Gust
knots
hPa Trend Height
m
Period
s
Dir
12/11:30pm 16.3 S 14 19 1020.7 - 0.0 - - - - - - -
12/11:00pm 16.6 S 15 22 1020.8 - 0.0 - - - - - - -
12/10:30pm 16.7 S 13 18 1020.8 - 0.0 - - - - - - -
12/10:00pm 17.0 SSE 13 16 1020.8 - 0.0 - - - - - - -
12/09:30pm 17.4 S 13 19 1020.8 - 0.0 - - - - - - -
12/09:00pm 17.5 S 9 13 1020.7 - 0.0 - - - - - - -
12/08:30pm 18.0 S 11 15 1020.4 - 0.0 - - - - - - -
12/08:00pm 18.6 S 14 17 1019.9 - 0.0 - - - - - - -
12/07:30pm 18.8 SSW 17 23 1019.5 - 0.0 - - - - - - -
12/07:00pm 19.3 SSW 21 27 1019.0 - 0.0 - - - - - - -
12/06:30pm 20.2 SSW 20 30 1018.7 - 0.0 - - - - - - -
12/06:25pm 20.5 SSW 20 30 1018.6 - 0.0 - - - - - - -
12/06:00pm 20.9 SSW 22 30 1018.4 - 0.0 - - - - - - -
12/05:30pm 21.3 SSW 20 28 1018.3 - 0.0 - - - - - - -
12/05:00pm 21.9 SSW 19 26 1018.1 - 0.0 - - - - - - -
12/04:30pm 22.4 SSW 18 24 1018.1 - 0.0 - - - - - - -
12/04:00pm 22.7 SSW 18 25 1017.9 - 0.0 - - - - - - -
12/03:30pm 23.8 SSW 17 24 1018.0 - 0.0 - - - - - - -
12/03:00pm 23.1 SW 18 24 1018.0 - 0.0 - - - - - - -
12/02:30pm 23.9 SSW 17 23 1018.0 - 0.0 - - - - - - -
12/02:00pm 23.7 SSW 17 21 1018.1 - 0.0 - - - - - - -
12/01:30pm 24.2 SSW 18 25 1018.3 - 0.0 - - - - - - -
12/01:00pm 23.8 SSW 17 23 1018.5 - 0.0 - - - - - - -
12/12:30pm 24.0 SSW 16 19 1018.7 - 0.0 - - - - - - -
12/12:00pm 24.0 SSW 15 21 1018.9 - 0.0 - - - - - - -
12/11:30am 23.7 SSW 15 19 1019.2 - 0.0 - - - - - - -
12/11:00am 22.4 SSW 16 22 1019.4 - 0.0 - - - - - - -
12/10:30am 21.6 SSW 13 18 1019.6 - 0.0 - - - - - - -
12/10:00am 21.0 SSW 12 15 1019.5 - 0.0 - - - - - - -
12/09:30am 21.3 SSW 10 16 1019.2 - 0.0 - - - - - - -
12/09:00am 20.1 S 11 16 1019.1 - 0.0 - - - - - - -
12/08:30am 20.2 S 11 15 1019.2 - 0.0 - - - - - - -
12/08:00am 19.4 SSE 11 15 1018.9 - 0.0 - - - - - - -
12/07:30am 18.7 SSE 9 12 1018.8 - 0.0 - - - - - - -
12/07:00am 16.3 SSE 10 12 1018.7 - 0.0 - - - - - - -
12/06:30am 15.8 SSE 8 10 1018.4 - 0.0 - - - - - - -
12/06:00am 15.8 SSE 10 13 1017.6 - 0.0 - - - - - - -
12/05:30am 16.1 S 11 14 1017.1 - 0.0 - - - - - - -
12/05:00am 16.0 S 11 15 1016.6 - 0.0 - - - - - - -
12/04:30am 16.0 S 10 13 1016.5 - 0.0 - - - - - - -
12/04:00am 16.4 SSE 10 15 1016.0 - 0.0 - - - - - - -
12/03:30am 16.9 S 12 16 1015.3 - 0.0 - - - - - - -
12/03:00am 17.2 S 15 21 1015.0 - 0.0 - - - - - - -
12/02:30am 17.3 S 15 21 1015.0 - 0.0 - - - - - - -
12/02:00am 17.0 S 10 15 1015.1 - 0.0 - - - - - - -
12/01:30am 17.4 S 11 16 1015.3 - 0.0 - - - - - - -
12/01:00am 17.7 S 13 18 1015.5 - 0.0 - - - - - - -
12/12:30am 17.5 S 11 16 1015.7 - 0.0 - - - - - - -
12/12:00am 17.7 S 12 18 1015.7 - 0.0 - - - - - - -
 
Date/Time
WST
Temp

°C
Wind Pressure Rain
since 9am
mm
Weather Cloud Vis
km
Sea
Height
m
Swell
Dir
 
Speed
knots
Gust
knots
hPa Trend Height
m
Period
s
Dir
11/11:30pm 17.6 S 12 16 1015.7 - 0.0 - - - - - - -
11/11:00pm 18.0 S 15 21 1015.7 - 0.0 - - - - - - -
11/10:30pm 18.1 SSW 17 22 1015.5 - 0.0 - - - - - - -
11/10:00pm 18.3 S 15 23 1015.4 - 0.0 - - - - - - -
11/09:30pm 18.6 SSW 17 23 1015.1 - 0.0 - - - - - - -
11/09:17pm 18.7 SSW 17 27 1014.9 - 0.0 - - - - - - -
11/09:00pm 19.0 SSW 22 29 1014.6 - 0.0 - - - - - - -
11/08:30pm 19.2 SSW 23 30 1014.2 - 0.0 - - - - - - -
11/08:00pm 19.3 SSW 21 30 1014.0 - 0.0 - - - - - - -
11/07:30pm 19.5 SSW 25 33 1013.6 - 0.0 - - - - - - -
11/07:01pm 20.0 SSW 21 31 1013.2 - 0.0 - - - - - - -
11/07:00pm 20.1 SSW 21 30 1013.2 - 0.0 - - - - - - -
11/06:30pm 20.9 SSW 22 28 1012.7 - 0.0 - - - - - - -
11/06:00pm 21.6 SSW 21 30 1012.3 - 0.0 - - - - - - -
11/05:30pm 21.9 SSW 24 31 1011.9 - 0.0 - - - - - - -
11/05:00pm 22.6 SSW 22 31 1011.7 - 0.0 - - - - - - -
11/04:30pm 22.8 SSW 21 28 1011.5 - 0.0 - - - - - - -
11/04:00pm 23.2 SSW 21 27 1011.6 - 0.0 - - - - - - -
11/03:30pm 24.1 SSW 18 26 1011.5 - 0.0 - - - - - - -
11/03:00pm 23.6 SW 17 23 1011.9 - 0.0 - - - - - - -
11/02:30pm 25.3 SW 15 20 1012.2 - 0.0 - - - - - - -
11/02:00pm 24.8 SW 14 18 1012.3 - 0.0 - - - - - - -
11/01:30pm 25.8 SSW 14 19 1012.6 - 0.0 - - - - - - -
11/01:00pm 25.2 SSW 14 19 1012.8 - 0.0 - - - - - - -
11/12:30pm 25.5 SW 13 17 1012.9 - 0.0 - - - - - - -
11/12:00pm 26.0 SW 11 15 1013.1 - 0.0 - - - - - - -
11/11:30am 26.7 SW 9 13 1013.1 - 0.0 - - - - - - -
11/11:00am 25.5 SW 11 14 1013.3 - 0.0 - - - - - - -
11/10:30am 25.9 SW 8 10 1013.7 - 0.0 - - - - - - -
11/10:00am 25.9 SW 8 11 1013.7 - 0.0 - - - - - - -
11/09:30am 27.1 SW 4 8 1013.8 - 0.0 - - - - - - -
11/09:00am 25.7 SSE 7 9 1013.7 - 0.0 - - - - - - -
11/08:30am 24.2 SE 10 14 1013.4 - 0.0 - - - - - - -
11/08:00am 22.7 SE 12 16 1013.5 - 0.0 - - - - - - -
11/07:30am 21.1 SE 15 19 1013.1 - 0.0 - - - - - - -
11/07:00am 20.0 SE 14 19 1012.9 - 0.0 - - - - - - -
11/06:30am 18.9 SE 16 20 1012.9 - 0.0 - - - - - - -
11/06:00am 18.3 SE 15 19 1012.5 - 0.0 - - - - - - -
11/05:30am 18.6 SE 13 18 1012.3 - 0.0 - - - - - - -
11/05:00am 19.0 SE 13 17 1012.0 - 0.0 - - - - - - -
11/04:30am 19.0 SSE 12 16 1011.9 - 0.0 - - - - - - -
11/04:00am 19.2 SSE 11 16 1011.8 - 0.0 - - - - - - -
11/03:30am 19.4 SSE 11 15 1011.8 - 0.0 - - - - - - -
11/03:00am 19.4 SSE 9 13 1011.7 - 0.0 - - - - - - -
11/02:30am 19.7 SSE 9 13 1011.8 - 0.0 - - - - - - -
11/02:00am 20.0 S 7 11 1012.0 - 0.0 - - - - - - -
11/01:30am 20.5 SSE 8 12 1012.2 - 0.0 - - - - - - -
11/01:00am 20.9 SSE 10 14 1012.3 - 0.0 - - - - - - -
11/12:30am 21.2 SSE 11 15 1012.3 - 0.0 - - - - - - -
11/12:00am 21.3 SSE 11 16 1012.5 - 0.0 - - - - - - -
 
Date/Time
WST
Temp

°C
Wind Pressure Rain
since 9am
mm
Weather Cloud Vis
km
Sea
Height
m
Swell
Dir
 
Speed
knots
Gust
knots
hPa Trend Height
m
Period
s
Dir
10/11:30pm 20.2 S 9 13 1012.8 - 0.0 - - - - - - -
10/11:00pm 19.7 SSW 10 13 1013.1 - 0.0 - - - - - - -
10/10:30pm 20.3 SSW 9 12 1013.3 - 0.0 - - - - - - -
10/10:00pm 20.2 SW 8 10 1013.4 - 0.0 - - - - - - -
10/09:30pm 20.7 SW 11 13 1013.5 - 0.0 - - - - - - -

Other Formats:

Comma delimited format used in spreadsheet applications
http://www.bom.gov.au/fwo/IDW60701/IDW60701.94600.axf

JavaScript Object Notation format (JSON) in row-major order
http://www.bom.gov.au/fwo/IDW60701/IDW60701.94600.json